Time;durP1;ratioP1;P1;durP2;ratioP2;P2;SDS_P1;SDS_P2;PMS_P1;PMS_P2;Temp;Humidity;BMP_temperature;BMP_pressure;BME280_temperature;BME280_humidity;BME280_pressure;Samples;Min_cycle;Max_cycle;Signal;HPM_P1;HPM_P2
2021/08/02 00:01:21;;;;;;;2.93;2.10;;;;;;;13.38;74.03;95352.06;5054302;28;20181;-76
2021/08/02 00:04:06;;;;;;;1.97;1.83;;;;;;;13.42;74.13;95363.75;5054192;28;20222;-77
2021/08/02 00:06:51;;;;;;;2.67;1.70;;;;;;;13.43;74.25;95369.78;5037602;28;20271;-78
2021/08/02 00:09:24;;;;;;;2.73;2.53;;;;;;;13.40;74.34;95370.13;5066899;28;20558;-77
2021/08/02 00:11:52;;;;;;;2.10;1.90;;;;;;;13.48;73.89;95363.09;5053886;28;20185;-77
2021/08/02 00:14:20;;;;;;;2.07;1.73;;;;;;;13.46;74.09;95362.47;5037283;28;20667;-77
2021/08/02 00:16:45;;;;;;;3.93;2.13;;;;;;;13.50;74.06;95376.78;5054129;28;20176;-77
2021/08/02 00:19:10;;;;;;;2.00;1.83;;;;;;;13.49;73.88;95367.31;5054111;28;20272;-77
2021/08/02 00:21:37;;;;;;;2.97;1.90;;;;;;;13.48;73.80;95367.50;5053954;28;20173;-77
2021/08/02 00:24:02;;;;;;;2.60;1.90;;;;;;;13.45;73.96;95376.50;5053467;28;20181;-78
2021/08/02 00:26:29;;;;;;;2.37;1.90;;;;;;;13.44;73.43;95371.44;5053388;28;20211;-77
2021/08/02 00:28:55;;;;;;;1.93;1.70;;;;;;;13.46;73.82;95379.91;5037700;28;20558;-77
2021/08/02 00:31:20;;;;;;;2.73;1.60;;;;;;;13.51;73.20;95375.78;5057840;28;20183;-77
2021/08/02 00:33:46;;;;;;;2.87;1.83;;;;;;;13.48;72.99;95394.41;5038033;28;20181;-76
2021/08/02 00:36:20;;;;;;;2.27;2.07;;;;;;;13.42;73.31;95394.25;5071568;28;20738;-77
2021/08/02 00:38:49;;;;;;;3.03;1.97;;;;;;;13.31;73.61;95390.22;5071600;28;20636;-76
2021/08/02 00:41:19;;;;;;;3.20;2.10;;;;;;;13.30;73.83;95394.63;5036882;28;20181;-76
2021/08/02 00:44:12;;;;;;;3.47;1.63;;;;;;;13.25;73.96;95391.72;5084359;28;20349;-77
2021/08/02 00:46:40;;;;;;;3.03;1.80;;;;;;;13.26;73.94;95397.75;5091803;28;20246;-75
2021/08/02 00:49:08;;;;;;;2.93;1.80;;;;;;;13.24;74.06;95384.03;5073660;28;20181;-77
2021/08/02 00:51:37;;;;;;;3.30;1.70;;;;;;;13.27;73.75;95388.94;5056690;28;20204;-77
2021/08/02 00:54:03;;;;;;;2.27;2.07;;;;;;;13.26;74.42;95389.94;5073775;28;20260;-77
2021/08/02 00:56:34;;;;;;;3.67;1.73;;;;;;;13.29;73.98;95387.78;5073549;28;20204;-78
2021/08/02 00:59:05;;;;;;;2.60;1.60;;;;;;;13.29;74.10;95381.75;5054723;28;20193;-78
2021/08/02 01:01:36;;;;;;;1.90;1.73;;;;;;;13.23;74.23;95385.03;5053302;28;20173;-78
2021/08/02 01:04:02;;;;;;;3.07;2.07;;;;;;;13.25;74.13;95385.66;5053767;28;20185;-78
2021/08/02 01:06:29;;;;;;;1.70;1.60;;;;;;;13.23;74.06;95383.22;5053601;28;20710;-78
2021/08/02 01:08:55;;;;;;;1.80;1.57;;;;;;;13.32;74.02;95387.44;5053799;28;20247;-77
2021/08/02 01:11:21;;;;;;;2.20;2.00;;;;;;;13.30;74.02;95386.00;5053320;28;20620;-78
2021/08/02 01:13:46;;;;;;;2.20;1.87;;;;;;;13.27;74.07;95381.94;5053657;28;20170;-77
2021/08/02 01:16:11;;;;;;;2.27;1.80;;;;;;;13.26;74.23;95385.53;5053453;28;20243;-78
2021/08/02 01:18:38;;;;;;;3.07;1.97;;;;;;;13.27;74.25;95383.72;5053522;28;20204;-78
2021/08/02 01:21:08;;;;;;;3.43;1.97;;;;;;;13.31;73.94;95378.00;5053534;28;20178;-78
2021/08/02 01:23:34;;;;;;;2.10;1.83;;;;;;;13.38;73.53;95382.53;5053644;28;20943;-78
2021/08/02 01:25:59;;;;;;;3.43;2.00;;;;;;;13.40;73.33;95376.16;5053481;28;20211;-77
2021/08/02 01:28:24;;;;;;;3.30;1.77;;;;;;;13.39;73.46;95371.13;5071481;28;20260;-78
2021/08/02 01:30:49;;;;;;;4.37;1.93;;;;;;;13.37;73.36;95378.31;5053172;28;20268;-77
2021/08/02 01:33:29;;;;;;;2.07;1.73;;;;;;;13.33;73.80;95383.03;5071142;28;20173;-77
2021/08/02 01:35:58;;;;;;;3.40;2.00;;;;;;;13.33;73.63;95373.41;5038035;28;20211;-77
2021/08/02 01:38:25;;;;;;;3.70;2.00;;;;;;;13.32;73.69;95377.00;5040435;28;20169;-76
2021/08/02 01:40:51;;;;;;;6.13;2.03;;;;;;;13.31;73.84;95388.41;5039962;28;20189;-77
2021/08/02 01:43:16;;;;;;;4.37;1.80;;;;;;;13.31;73.94;95378.00;5057005;28;20603;-77
2021/08/02 01:45:59;;;;;;;3.40;2.00;;;;;;;13.38;73.74;95378.13;5057012;28;20209;-77
2021/08/02 01:48:29;;;;;;;3.27;1.93;;;;;;;13.33;73.29;95377.81;5056826;28;20219;-77
2021/08/02 01:51:06;;;;;;;2.40;1.87;;;;;;;13.35;73.40;95375.88;5056799;28;20192;-76
2021/08/02 01:53:38;;;;;;;2.13;1.70;;;;;;;13.36;73.51;95372.28;5056687;28;20177;-78
2021/08/02 01:56:34;;;;;;;2.23;1.60;;;;;;;13.29;73.44;95374.75;5056674;28;20680;-78
2021/08/02 01:59:13;;;;;;;2.30;2.00;;;;;;;13.28;73.50;95377.53;5030254;28;20185;-78
2021/08/02 02:01:49;;;;;;;2.33;2.07;;;;;;;13.23;73.71;95385.84;5039811;28;20205;-77
2021/08/02 02:04:16;;;;;;;1.90;1.80;;;;;;;13.18;73.76;95384.69;5040033;28;20200;-78
2021/08/02 02:06:45;;;;;;;2.57;1.70;;;;;;;13.15;73.81;95380.63;5056686;28;20173;-77
2021/08/02 02:09:12;;;;;;;3.80;2.20;;;;;;;13.17;73.87;95390.91;5056877;28;20192;-78
2021/08/02 02:11:41;;;;;;;4.27;1.73;;;;;;;13.08;74.13;95381.47;5056391;28;20201;-78
2021/08/02 02:14:09;;;;;;;3.77;1.83;;;;;;;13.05;74.22;95385.22;5039410;28;20212;-76
2021/08/02 02:16:37;;;;;;;4.63;2.20;;;;;;;13.04;74.28;95378.38;5039771;28;20197;-77
2021/08/02 02:19:04;;;;;;;4.13;2.00;;;;;;;12.98;74.60;95381.63;5056684;28;20615;-78
2021/08/02 02:21:31;;;;;;;4.30;1.97;;;;;;;13.01;74.20;95394.34;5056432;28;20181;-76
2021/08/02 02:23:57;;;;;;;3.23;2.03;;;;;;;12.95;74.71;95395.00;5056379;28;20178;-78
2021/08/02 02:26:27;;;;;;;3.30;1.73;;;;;;;12.93;74.69;95392.56;5056506;28;20556;-78
2021/08/02 02:28:55;;;;;;;5.27;1.83;;;;;;;12.93;74.61;95396.97;5056907;28;20173;-78
2021/08/02 02:31:21;;;;;;;1.60;1.50;;;;;;;12.96;74.61;95394.03;5039466;28;20633;-77
2021/08/02 02:33:47;;;;;;;3.20;2.10;;;;;;;13.00;74.59;95395.34;5056134;28;20193;-78
2021/08/02 02:36:13;;;;;;;4.47;2.00;;;;;;;12.98;74.41;95389.44;5056268;28;20601;-78
2021/08/02 02:38:38;;;;;;;2.80;2.07;;;;;;;12.97;74.63;95391.25;5039487;28;20177;-78
2021/08/02 02:41:04;;;;;;;3.40;1.93;;;;;;;13.02;74.23;95390.75;5056165;28;20181;-77
2021/08/02 02:43:30;;;;;;;3.70;2.07;;;;;;;13.04;74.39;95391.41;5056031;28;20264;-77
2021/08/02 02:45:56;;;;;;;3.43;1.90;;;;;;;13.07;74.65;95393.66;5055876;28;20216;-77
2021/08/02 02:48:21;;;;;;;2.47;1.90;;;;;;;13.09;74.22;95381.31;5055165;28;20178;-78
2021/08/02 02:50:48;;;;;;;2.83;1.90;;;;;;;13.10;74.47;95393.34;5039411;28;20174;-77
2021/08/02 02:53:17;;;;;;;4.20;1.70;;;;;;;13.07;74.81;95396.28;5038990;28;20231;-77
2021/08/02 02:55:44;;;;;;;3.80;2.20;;;;;;;13.09;74.48;95396.94;5039238;28;20583;-77
2021/08/02 02:58:09;;;;;;;3.13;1.70;;;;;;;13.10;74.34;95395.97;5055929;28;20173;-78
2021/08/02 03:00:35;;;;;;;3.03;1.70;;;;;;;13.08;74.28;95397.94;5056106;28;20633;-77
2021/08/02 03:03:01;;;;;;;4.80;1.90;;;;;;;13.09;74.25;95398.75;5055946;28;20187;-77
2021/08/02 03:05:28;;;;;;;2.33;1.77;;;;;;;13.12;74.55;95406.22;5039009;28;20274;-78
2021/08/02 03:07:56;;;;;;;3.10;2.10;;;;;;;13.10;74.56;95400.38;5039116;28;20185;-78
2021/08/02 03:10:23;;;;;;;3.70;2.00;;;;;;;13.11;74.56;95402.81;5055772;28;20173;-78
2021/08/02 03:12:49;;;;;;;3.23;2.10;;;;;;;13.08;74.58;95403.16;5038935;28;20189;-78
2021/08/02 03:15:14;;;;;;;3.00;1.90;;;;;;;13.03;75.30;95410.63;5055478;28;20280;-78
2021/08/02 03:17:40;;;;;;;3.03;1.80;;;;;;;13.04;75.18;95401.84;5055751;28;20189;-78
2021/08/02 03:20:06;;;;;;;3.20;2.10;;;;;;;13.03;75.08;95410.63;5055587;28;20173;-78
2021/08/02 03:22:35;;;;;;;2.80;2.23;;;;;;;13.02;75.10;95414.22;5055174;28;20696;-78
2021/08/02 03:25:19;;;;;;;3.13;1.80;;;;;;;12.98;75.06;95407.69;5055194;28;20300;-78
2021/08/02 03:27:50;;;;;;;5.50;2.07;;;;;;;13.02;75.23;95419.44;5055354;28;20200;-77
2021/08/02 03:30:16;;;;;;;2.67;1.73;;;;;;;12.98;75.23;95412.91;5055525;28;20200;-78
2021/08/02 03:32:44;;;;;;;2.80;1.73;;;;;;;13.03;75.04;95421.06;5038122;28;20226;-78
2021/08/02 03:35:12;;;;;;;2.87;1.70;;;;;;;13.05;75.06;95419.91;5038421;28;20197;-77
2021/08/02 03:37:38;;;;;;;3.40;1.83;;;;;;;13.02;75.21;95420.25;5055085;28;20176;-77
2021/08/02 03:40:05;;;;;;;4.17;2.03;;;;;;;13.03;74.81;95415.84;5072694;28;20705;-78
2021/08/02 03:42:32;;;;;;;2.97;1.63;;;;;;;13.08;74.61;95423.19;5055165;28;20181;-78
2021/08/02 03:44:57;;;;;;;1.63;1.50;;;;;;;13.08;74.57;95424.00;5038193;28;20209;-78
2021/08/02 03:47:23;;;;;;;2.77;1.73;;;;;;;13.09;74.57;95430.03;5038613;28;20184;-78
2021/08/02 03:49:48;;;;;;;2.10;1.83;;;;;;;13.05;74.38;95424.31;5038458;28;20192;-78
2021/08/02 03:52:15;;;;;;;4.33;1.60;;;;;;;13.09;74.31;95432.63;5038032;28;20554;-77
2021/08/02 03:54:40;;;;;;;2.90;1.60;;;;;;;13.14;74.35;95425.09;5055006;28;20238;-77
2021/08/02 03:57:06;;;;;;;2.10;1.90;;;;;;;13.15;74.15;95429.34;5055156;28;20268;-78
2021/08/02 03:59:33;;;;;;;2.13;1.67;;;;;;;13.17;74.26;95435.22;5054801;28;20424;-78
2021/08/02 04:01:58;;;;;;;3.23;1.80;;;;;;;13.15;74.24;95437.97;5037989;28;20181;-77
2021/08/02 04:04:23;;;;;;;2.00;1.80;;;;;;;13.15;74.57;95443.19;5072466;28;20219;-78
2021/08/02 04:06:49;;;;;;;1.80;1.70;;;;;;;13.14;74.12;95438.97;5072657;28;20654;-77
2021/08/02 04:09:14;;;;;;;2.90;2.00;;;;;;;13.19;74.25;95443.69;5054527;28;20205;-76
2021/08/02 04:11:41;;;;;;;3.80;1.80;;;;;;;13.17;73.72;95437.84;5054292;28;20268;-77
2021/08/02 04:14:07;;;;;;;2.90;1.90;;;;;;;13.17;73.85;95440.44;5054548;28;20177;-76
2021/08/02 04:16:33;;;;;;;2.63;1.70;;;;;;;13.23;73.84;95442.41;5037813;28;20209;-77
2021/08/02 04:18:58;;;;;;;2.33;1.80;;;;;;;13.22;73.95;95446.78;5046005;28;20241;-78
2021/08/02 04:21:23;;;;;;;3.57;1.90;;;;;;;13.24;73.96;95450.03;5054173;28;20272;-78
2021/08/02 04:23:49;;;;;;;4.80;1.90;;;;;;;13.28;73.88;95459.19;5054543;28;20671;-78
2021/08/02 04:26:14;;;;;;;2.80;1.83;;;;;;;13.32;73.92;95447.41;5054200;28;20574;-77
2021/08/02 04:28:41;;;;;;;5.10;1.77;;;;;;;13.27;74.02;95454.13;5054128;28;20188;-77
2021/08/02 04:31:06;;;;;;;3.67;2.00;;;;;;;13.27;74.49;95454.94;5037788;28;20186;-77
2021/08/02 04:33:32;;;;;;;2.30;1.60;;;;;;;13.32;73.66;95454.44;5037628;28;20173;-77
2021/08/02 04:35:57;;;;;;;3.97;1.83;;;;;;;13.37;73.67;95465.19;5037355;28;20211;-77
2021/08/02 04:38:22;;;;;;;2.73;1.40;;;;;;;13.35;73.41;95461.94;5037455;28;20196;-78
2021/08/02 04:40:48;;;;;;;2.10;1.90;;;;;;;13.39;73.16;95457.19;5071840;28;20578;-77
2021/08/02 04:43:13;;;;;;;3.13;1.70;;;;;;;13.39;73.14;95462.41;5068268;28;20190;-75
2021/08/02 04:45:39;;;;;;;1.57;1.47;;;;;;;13.39;73.10;95463.22;5094668;28;20701;-77
2021/08/02 04:48:04;;;;;;;3.73;1.60;;;;;;;13.42;73.19;95459.47;5077525;28;20244;-76
2021/08/02 04:50:29;;;;;;;2.83;1.43;;;;;;;13.43;72.79;95469.75;5093959;28;20187;-76
2021/08/02 04:52:55;;;;;;;2.30;1.70;;;;;;;13.48;72.54;95461.41;5076674;28;20179;-76
2021/08/02 04:55:20;;;;;;;3.17;1.80;;;;;;;13.51;72.43;95458.47;5093771;28;20199;-76
2021/08/02 04:57:45;;;;;;;3.07;1.60;;;;;;;13.57;72.56;95466.44;5076933;28;20180;-76
2021/08/02 05:00:11;;;;;;;2.30;1.53;;;;;;;13.53;72.44;95465.16;5093694;28;20172;-77
2021/08/02 05:02:36;;;;;;;2.77;1.70;;;;;;;13.54;72.31;95466.78;5076776;28;20529;-77
2021/08/02 05:05:02;;;;;;;1.97;1.60;;;;;;;13.61;72.31;95466.94;5094076;28;20207;-77
2021/08/02 05:07:27;;;;;;;3.57;1.87;;;;;;;13.62;72.20;95465.94;5094302;28;20376;-78
2021/08/02 05:09:53;;;;;;;3.10;1.90;;;;;;;13.65;72.22;95470.81;5077208;28;20549;-77
2021/08/02 05:12:18;;;;;;;3.70;1.70;;;;;;;13.67;72.05;95474.06;5080207;28;20176;-77
2021/08/02 05:14:44;;;;;;;1.90;1.70;;;;;;;13.64;72.66;95466.59;5081010;28;20215;-77
2021/08/02 05:17:09;;;;;;;2.57;1.70;;;;;;;13.59;72.44;95468.88;5098568;28;20172;-77
2021/08/02 05:19:35;;;;;;;1.50;1.40;;;;;;;13.66;72.23;95477.66;5081212;28;20249;-77
2021/08/02 05:22:00;;;;;;;3.47;1.80;;;;;;;13.70;71.88;95476.34;5080660;28;20211;-78
2021/08/02 05:24:25;;;;;;;1.73;1.60;;;;;;;13.74;71.76;95477.63;5080787;28;20291;-77
2021/08/02 05:26:51;;;;;;;3.20;1.70;;;;;;;13.82;72.18;95482.03;5098037;28;20172;-77
2021/08/02 05:29:17;;;;;;;2.20;1.60;;;;;;;13.82;71.96;95480.22;5087847;28;20219;-77
2021/08/02 05:31:42;;;;;;;3.47;2.23;;;;;;;13.91;71.80;95480.19;5096971;28;20233;-78
2021/08/02 05:34:07;;;;;;;2.93;1.60;;;;;;;14.01;71.20;95483.41;5097643;28;20557;-77
2021/08/02 05:36:32;;;;;;;4.00;2.20;;;;;;;14.00;71.79;95482.59;5097880;28;20232;-77
2021/08/02 05:38:58;;;;;;;5.63;2.77;;;;;;;13.98;71.61;95483.75;5080623;28;20217;-77
2021/08/02 05:41:23;;;;;;;6.03;2.83;;;;;;;14.02;71.69;95490.25;5058760;28;20192;-77
2021/08/02 05:43:49;;;;;;;3.90;2.30;;;;;;;14.11;71.28;95490.03;5080830;28;20179;-77
2021/08/02 05:46:14;;;;;;;4.70;2.27;;;;;;;14.09;71.13;95485.97;5088061;28;20220;-77
2021/08/02 05:48:39;;;;;;;2.60;2.00;;;;;;;13.99;71.25;95491.41;5115598;28;20211;-77
2021/08/02 05:51:05;;;;;;;2.83;1.87;;;;;;;13.95;71.36;95489.28;5080178;28;20210;-77
2021/08/02 05:53:30;;;;;;;3.43;1.53;;;;;;;13.93;71.69;95491.28;5097214;28;20607;-78
2021/08/02 05:55:55;;;;;;;2.80;1.70;;;;;;;14.03;71.46;95494.47;5097374;28;20203;-77
2021/08/02 05:58:21;;;;;;;3.33;1.90;;;;;;;14.03;71.80;95497.91;5097272;28;20665;-79
2021/08/02 06:00:46;;;;;;;5.10;1.50;;;;;;;14.15;71.06;95490.53;5081317;28;20183;-80
2021/08/02 06:03:11;;;;;;;3.30;1.67;;;;;;;14.20;70.96;95497.84;5091961;28;20558;-81
2021/08/02 06:05:36;;;;;;;3.80;2.07;;;;;;;14.36;70.87;95497.75;5069760;28;20227;-81
2021/08/02 06:08:02;;;;;;;4.80;2.33;;;;;;;14.57;70.46;95499.78;5088434;28;20228;-79
2021/08/02 06:10:27;;;;;;;4.70;2.00;;;;;;;14.58;70.07;95504.03;5080179;28;20184;-76
2021/08/02 06:12:52;;;;;;;1.77;1.53;;;;;;;14.72;69.39;95504.09;5084270;28;20187;-77
2021/08/02 06:15:18;;;;;;;4.40;1.90;;;;;;;14.81;69.01;95512.69;5096558;28;20249;-78
2021/08/02 06:17:43;;;;;;;2.57;1.73;;;;;;;14.90;68.22;95505.59;5076668;28;20180;-78
2021/08/02 06:20:10;;;;;;;2.37;1.57;;;;;;;14.99;67.54;95507.16;5115337;28;20168;-76
2021/08/02 06:22:35;;;;;;;2.43;1.73;;;;;;;15.07;67.45;95517.56;5095025;28;20274;-78
2021/08/02 06:25:01;;;;;;;2.40;1.50;;;;;;;15.35;67.52;95517.81;5093470;28;20295;-77
2021/08/02 06:27:29;;;;;;;3.23;1.50;;;;;;;15.43;66.44;95522.16;5089609;28;20562;-78
2021/08/02 06:29:55;;;;;;;1.60;1.47;;;;;;;15.85;66.22;95519.78;5083659;28;20187;-78
2021/08/02 06:32:20;;;;;;;4.45;1.88;;;;;;;16.06;65.17;95519.03;5079440;28;20188;-78
2021/08/02 06:34:45;;;;;;;1.93;1.80;;;;;;;16.15;65.03;95517.94;5059724;28;20660;-78
2021/08/02 06:37:12;;;;;;;3.17;1.60;;;;;;;16.03;64.60;95522.03;5076541;28;20172;-77
2021/08/02 06:39:38;;;;;;;4.72;2.08;;;;;;;16.14;63.58;95516.34;5055754;28;20181;-78
2021/08/02 06:42:03;;;;;;;2.45;1.55;;;;;;;16.47;63.36;95515.91;5039083;28;20181;-78
2021/08/02 06:44:29;;;;;;;1.65;1.45;;;;;;;16.58;63.22;95519.88;5056425;28;20201;-78
2021/08/02 06:46:54;;;;;;;3.33;1.48;;;;;;;16.80;62.12;95528.63;5056418;28;20181;-79
2021/08/02 06:49:19;;;;;;;1.85;1.13;;;;;;;16.48;61.85;95528.03;5039199;28;20180;-77
2021/08/02 06:51:44;;;;;;;1.60;1.30;;;;;;;16.47;62.45;95525.59;5070253;28;20648;-81
2021/08/02 06:54:10;;;;;;;3.70;1.60;;;;;;;16.63;62.74;95528.00;5077196;28;20188;-78
2021/08/02 06:56:35;;;;;;;2.08;1.23;;;;;;;16.78;62.15;95520.09;5059371;28;20236;-78
2021/08/02 06:59:00;;;;;;;2.58;1.38;;;;;;;16.83;61.95;95528.22;5075821;28;20190;-79
2021/08/02 07:01:26;;;;;;;4.10;1.65;;;;;;;16.97;61.98;95530.00;5076192;28;20196;-79
2021/08/02 07:03:51;;;;;;;1.40;1.30;;;;;;;17.11;61.27;95538.78;5106162;28;20707;-79
2021/08/02 07:06:16;;;;;;;3.00;1.40;;;;;;;17.15;59.96;95534.81;5107370;28;20199;-78
2021/08/02 07:08:42;;;;;;;3.40;1.65;;;;;;;17.20;60.52;95538.47;5094215;28;20181;-77
2021/08/02 07:11:07;;;;;;;2.17;1.50;;;;;;;17.23;60.09;95538.09;5075696;28;20249;-77
2021/08/02 07:13:33;;;;;;;2.55;1.27;;;;;;;17.35;59.79;95535.78;5058807;28;20173;-77
2021/08/02 07:16:00;;;;;;;3.03;1.40;;;;;;;17.33;59.76;95536.97;5093485;28;20210;-78
2021/08/02 07:18:32;;;;;;;2.72;1.42;;;;;;;17.34;59.63;95538.59;5076507;28;20172;-78
2021/08/02 07:20:57;;;;;;;2.95;1.60;;;;;;;17.82;58.47;95537.75;5095701;28;20179;-77
2021/08/02 07:23:23;;;;;;;2.10;1.50;;;;;;;18.22;57.97;95535.34;5082836;28;20184;-77
2021/08/02 07:25:48;;;;;;;1.50;1.40;;;;;;;18.39;57.54;95539.28;5075142;28;20319;-78
2021/08/02 07:28:13;;;;;;;2.40;1.67;;;;;;;18.09;58.02;95546.59;5075997;28;20268;-78
2021/08/02 07:30:39;;;;;;;1.92;1.20;;;;;;;18.46;56.68;95534.03;5073180;28;20667;-77
2021/08/02 07:33:04;;;;;;;2.05;1.27;;;;;;;18.31;56.44;95542.06;5055404;28;20173;-76
2021/08/02 07:35:30;;;;;;;1.88;1.23;;;;;;;18.35;56.50;95539.84;5054619;28;20269;-77
2021/08/02 07:37:55;;;;;;;2.38;1.30;;;;;;;18.11;56.38;95541.16;5038541;28;20177;-78
2021/08/02 07:40:20;;;;;;;3.75;1.35;;;;;;;18.30;56.56;95537.81;5076918;28;20176;-77
2021/08/02 07:42:46;;;;;;;3.75;1.40;;;;;;;18.43;56.03;95541.50;5093687;28;20191;-78
2021/08/02 07:45:11;;;;;;;5.18;1.80;;;;;;;18.59;56.13;95535.91;5093509;28;20242;-77
2021/08/02 07:47:37;;;;;;;3.00;1.80;;;;;;;18.81;55.17;95542.66;5075656;28;20184;-77
2021/08/02 07:50:04;;;;;;;3.88;1.50;;;;;;;18.78;55.55;95548.34;5074979;28;20172;-76
2021/08/02 07:52:31;;;;;;;1.40;1.30;;;;;;;18.64;55.84;95539.56;5074783;28;20172;-80
2021/08/02 07:54:57;;;;;;;2.45;1.30;;;;;;;19.01;53.36;95537.47;5074710;28;20195;-77
2021/08/02 07:57:22;;;;;;;2.03;1.30;;;;;;;19.78;52.67;95543.97;5074734;28;20176;-78
2021/08/02 07:59:47;;;;;;;2.58;1.35;;;;;;;19.41;51.47;95538.28;5074679;28;20180;-78
2021/08/02 08:02:12;;;;;;;2.42;1.50;;;;;;;19.26;53.06;95540.34;5074416;28;20195;-79
2021/08/02 08:04:38;;;;;;;2.92;1.40;;;;;;;18.80;54.41;95538.41;5071688;28;20216;-76
2021/08/02 08:07:03;;;;;;;2.25;1.50;;;;;;;19.09;53.93;95529.38;5080616;28;20271;-78
2021/08/02 08:09:29;;;;;;;3.17;1.42;;;;;;;19.19;52.55;95534.25;5079479;28;20248;-79
2021/08/02 08:11:54;;;;;;;3.30;1.40;;;;;;;18.99;53.71;95528.13;5074792;28;20454;-78
2021/08/02 08:14:19;;;;;;;2.85;1.48;;;;;;;19.08;53.16;95521.66;5099005;28;20172;-79
2021/08/02 08:16:44;;;;;;;3.33;1.80;;;;;;;19.30;53.64;95536.28;5096337;28;20195;-79
2021/08/02 08:19:10;;;;;;;1.58;1.27;;;;;;;19.36;52.55;95530.22;5078624;28;20179;-78
2021/08/02 08:21:36;;;;;;;4.22;1.55;;;;;;;19.55;52.34;95531.22;5094610;28;20635;-76
2021/08/02 08:24:05;;;;;;;1.58;1.27;;;;;;;19.71;52.06;95535.28;5074657;28;20169;-78
2021/08/02 08:26:31;;;;;;;1.63;1.10;;;;;;;19.56;51.81;95535.50;5074195;28;20201;-79
2021/08/02 08:28:56;;;;;;;2.03;1.40;;;;;;;19.88;50.50;95539.13;5074768;28;20175;-78
2021/08/02 08:31:22;;;;;;;1.67;1.00;;;;;;;19.88;50.64;95539.13;5057510;28;20177;-78
2021/08/02 08:33:49;;;;;;;1.95;1.30;;;;;;;20.32;49.60;95537.59;5058051;28;20224;-79
2021/08/02 08:36:16;;;;;;;4.65;1.02;;;;;;;19.92;49.32;95539.50;5094253;28;20259;-79
2021/08/02 08:38:42;;;;;;;1.13;1.02;;;;;;;19.87;50.30;95548.03;5062643;28;20178;-77
2021/08/02 08:41:07;;;;;;;1.30;1.20;;;;;;;19.99;48.10;95550.84;5057848;28;20267;-77
2021/08/02 08:43:32;;;;;;;1.63;1.10;;;;;;;20.25;48.20;95548.16;5074214;28;20222;-78
2021/08/02 08:45:58;;;;;;;2.10;1.25;;;;;;;20.84;47.02;95549.75;5054143;28;20235;-78
2021/08/02 08:48:23;;;;;;;2.53;1.17;;;;;;;21.29;46.72;95541.81;5058903;28;20180;-78
2021/08/02 08:50:49;;;;;;;1.95;1.02;;;;;;;21.44;45.26;95546.75;5063648;28;20180;-78
2021/08/02 08:53:16;;;;;;;1.92;1.48;;;;;;;21.76;45.63;95547.53;5060937;28;20168;-76
2021/08/02 08:55:43;;;;;;;2.13;1.10;;;;;;;21.45;45.61;95543.91;5061634;28;20640;-78
2021/08/02 08:58:09;;;;;;;1.40;1.00;;;;;;;21.40;44.89;95543.75;5060270;28;20652;-79
2021/08/02 09:00:34;;;;;;;1.27;1.00;;;;;;;21.40;45.74;95541.13;5076222;28;20231;-77
2021/08/02 09:03:11;;;;;;;1.38;1.27;;;;;;;21.47;45.62;95541.88;5040999;28;20213;-77
2021/08/02 09:05:37;;;;;;;2.63;1.20;;;;;;;22.10;44.00;95543.56;5066992;28;20207;-77
2021/08/02 09:08:03;;;;;;;2.40;1.27;;;;;;;22.04;44.54;95534.63;5098378;28;20549;-77
2021/08/02 09:10:29;;;;;;;2.78;1.77;;;;;;;21.90;44.93;95534.97;5082050;28;20438;-79
2021/08/02 09:12:57;;;;;;;1.38;1.10;;;;;;;20.49;45.43;95532.66;5098688;28;20330;-79
2021/08/02 09:15:42;;;;;;;1.73;1.27;;;;;;;20.10;47.91;95537.03;5081307;28;20245;-78
2021/08/02 09:18:09;;;;;;;4.68;1.25;;;;;;;20.09;47.85;95536.22;5098857;28;20183;-79
2021/08/02 09:20:35;;;;;;;1.38;1.10;;;;;;;20.02;47.86;95542.53;5081905;28;20233;-76
2021/08/02 09:23:27;;;;;;;1.08;0.90;;;;;;;19.33;50.01;95541.13;5099000;28;20636;-78
2021/08/02 09:25:54;;;;;;;1.83;1.35;;;;;;;19.48;49.99;95544.38;5112214;28;20223;-78
2021/08/02 09:28:22;;;;;;;1.98;1.05;;;;;;;19.39;50.34;95540.31;5099296;28;20620;-78
2021/08/02 09:30:54;;;;;;;1.27;1.00;;;;;;;19.43;51.04;95536.25;5099609;28;20176;-79
2021/08/02 09:33:20;;;;;;;2.38;1.17;;;;;;;19.95;49.85;95539.09;5084921;28;20551;-79
2021/08/02 09:35:49;;;;;;;1.10;1.00;;;;;;;19.80;49.36;95541.97;5099996;28;20188;-78
2021/08/02 09:38:15;;;;;;;1.30;1.20;;;;;;;19.44;49.53;95532.66;5099515;28;20179;-78
2021/08/02 09:40:54;;;;;;;1.92;1.17;;;;;;;19.34;51.17;95534.84;5098829;28;20550;-78
2021/08/02 09:43:21;;;;;;;1.20;1.10;;;;;;;19.39;51.81;95540.31;5082460;28;20175;-78
2021/08/02 09:45:58;;;;;;;1.45;1.30;;;;;;;19.23;56.64;95549.44;5082638;28;20526;-78
2021/08/02 09:48:33;;;;;;;3.47;1.80;;;;;;;18.87;58.32;95556.84;5080195;28;20177;-76
2021/08/02 09:51:07;;;;;;;2.80;1.60;;;;;;;18.61;58.40;95547.84;5082428;28;20244;-77
2021/08/02 09:53:39;;;;;;;3.10;1.73;;;;;;;18.58;59.16;95550.06;5081487;28;20181;-76
2021/08/02 09:56:05;;;;;;;5.90;1.70;;;;;;;18.12;61.35;95558.56;5064357;28;20220;-77
2021/08/02 09:58:31;;;;;;;4.13;1.48;;;;;;;18.15;61.10;95552.09;5104051;28;20172;-76
2021/08/02 10:00:56;;;;;;;1.70;1.38;;;;;;;18.48;61.23;95544.38;5090801;28;20195;-78
2021/08/02 10:03:21;;;;;;;2.08;1.60;;;;;;;18.74;61.15;95541.84;5081502;28;20214;-79
2021/08/02 10:05:49;;;;;;;2.45;1.77;;;;;;;19.24;59.66;95537.06;5097869;28;20214;-79
2021/08/02 10:08:17;;;;;;;3.45;1.45;;;;;;;19.48;59.14;95536.47;5082081;28;20361;-77
2021/08/02 10:10:42;;;;;;;1.65;1.27;;;;;;;19.70;57.45;95534.50;5065137;28;20223;-78
2021/08/02 10:13:07;;;;;;;2.10;1.48;;;;;;;19.23;56.68;95536.25;5075797;28;20542;-76
2021/08/02 10:15:33;;;;;;;1.83;1.45;;;;;;;19.78;58.94;95544.78;5074996;28;20280;-76
2021/08/02 10:18:01;;;;;;;2.47;1.45;;;;;;;19.79;57.60;95535.91;5058635;28;20174;-78
2021/08/02 10:20:28;;;;;;;1.88;1.55;;;;;;;19.83;56.25;95533.66;5041834;28;20227;-76
2021/08/02 10:22:54;;;;;;;1.88;1.70;;;;;;;19.73;55.94;95531.44;5074517;28;20182;-78
2021/08/02 10:25:37;;;;;;;1.38;1.25;;;;;;;19.51;55.49;95528.16;5098394;28;20295;-78
2021/08/02 10:28:17;;;;;;;3.10;1.20;;;;;;;19.60;56.69;95535.88;5098431;28;20155;-78
2021/08/02 10:30:45;;;;;;;1.30;1.20;;;;;;;19.21;56.47;95532.22;5098776;28;20591;-77
2021/08/02 10:33:11;;;;;;;2.22;1.50;;;;;;;18.91;56.26;95531.78;5080662;28;20160;-78
2021/08/02 10:35:37;;;;;;;1.50;1.15;;;;;;;19.16;57.06;95529.38;5097797;28;20605;-79
2021/08/02 10:38:12;;;;;;;4.05;1.63;;;;;;;19.06;57.88;95532.41;5061828;28;20223;-78
2021/08/02 10:40:45;;;;;;;2.35;1.60;;;;;;;19.17;57.86;95526.56;5077186;28;20554;-78
2021/08/02 10:43:10;;;;;;;3.80;1.50;;;;;;;18.99;57.39;95525.50;5060540;28;20204;-78
2021/08/02 10:45:38;;;;;;;1.90;1.50;;;;;;;19.12;57.37;95526.34;5076704;28;20615;-79
2021/08/02 10:48:03;;;;;;;1.30;1.17;;;;;;;19.61;56.75;95521.69;5060887;28;20208;-78
2021/08/02 10:50:31;;;;;;;2.55;1.30;;;;;;;19.94;56.31;95521.66;5060274;28;20215;-76
2021/08/02 10:52:56;;;;;;;5.05;1.70;;;;;;;20.09;52.03;95512.50;5079710;28;20180;-78
2021/08/02 10:55:25;;;;;;;1.73;1.23;;;;;;;20.52;52.38;95509.34;5074493;28;20252;-78
2021/08/02 10:57:58;;;;;;;3.05;1.45;;;;;;;20.74;52.82;95511.66;5097810;28;20193;-78
2021/08/02 11:00:24;;;;;;;2.53;1.55;;;;;;;20.89;51.26;95515.63;5061279;28;20172;-78
2021/08/02 11:02:54;;;;;;;1.48;1.38;;;;;;;20.88;51.68;95518.47;5094581;28;20237;-78
2021/08/02 11:05:21;;;;;;;5.45;1.30;;;;;;;20.12;52.33;95523.63;5077076;28;20214;-78
2021/08/02 11:07:46;;;;;;;1.63;1.50;;;;;;;20.57;51.89;95516.59;5078184;28;20172;-78
2021/08/02 11:10:14;;;;;;;1.48;1.30;;;;;;;20.41;51.13;95515.25;5076902;28;20195;-78
2021/08/02 11:12:47;;;;;;;2.30;1.45;;;;;;;21.32;52.37;95520.25;5076362;28;20173;-78
2021/08/02 11:15:13;;;;;;;1.70;1.38;;;;;;;20.78;49.52;95505.75;5075879;28;20184;-78
2021/08/02 11:17:52;;;;;;;2.05;1.27;;;;;;;21.29;50.49;95510.13;5076600;28;20185;-78
2021/08/02 11:20:18;;;;;;;1.90;1.42;;;;;;;21.80;50.13;95505.59;5078595;28;20673;-78
2021/08/02 11:22:55;;;;;;;5.43;1.48;;;;;;;21.28;46.21;95503.19;5084151;28;20172;-79
2021/08/02 11:25:28;;;;;;;1.70;1.20;;;;;;;20.77;49.33;95512.06;5084296;28;20245;-78
2021/08/02 11:27:55;;;;;;;4.32;1.80;;;;;;;20.03;52.89;95502.78;5100907;28;20594;-79
2021/08/02 11:30:22;;;;;;;4.57;1.63;;;;;;;19.90;54.40;95500.19;5068777;28;20230;-78
2021/08/02 11:32:48;;;;;;;1.85;1.20;;;;;;;19.66;52.83;95509.56;5090022;28;20164;-78
2021/08/02 11:35:15;;;;;;;1.80;1.35;;;;;;;19.72;54.29;95507.94;5080197;28;20248;-78